createdAt,value
2019-05-02T05:57:21.183Z,8.05
2019-05-02T06:02:22.381Z,8.33
2019-05-02T06:07:23.351Z,8.56
2019-05-02T06:12:26.056Z,8.74
2019-05-02T06:17:28.650Z,8.99
2019-05-02T06:22:29.772Z,9.16
2019-05-02T06:27:30.638Z,9.26
2019-05-02T06:32:31.635Z,9.58
2019-05-02T06:37:32.524Z,9.82
2019-05-02T06:42:34.629Z,9.93
2019-05-02T06:47:41.693Z,10.08
2019-05-02T06:52:39.057Z,10.35
2019-05-02T06:57:39.927Z,10.54
2019-05-02T07:02:40.942Z,10.74
2019-05-02T07:07:41.916Z,11.04
2019-05-02T07:12:46.127Z,11.28
2019-05-02T07:17:47.464Z,11.49
2019-05-02T07:22:48.823Z,11.84
2019-05-02T07:27:49.701Z,12.39
2019-05-02T07:32:51.024Z,12.53
2019-05-02T07:37:51.936Z,12.80
2019-05-02T07:42:52.814Z,12.69
2019-05-02T07:47:53.684Z,13.28
2019-05-02T07:52:54.567Z,13.66
2019-05-02T07:57:55.449Z,13.62
2019-05-02T08:02:57.994Z,13.87
2019-05-02T08:07:59.111Z,14.11
2019-05-02T08:12:59.989Z,14.31
2019-05-02T08:18:00.968Z,14.47
2019-05-02T08:23:01.943Z,14.75
2019-05-02T08:28:17.912Z,14.92
2019-05-02T08:33:19.742Z,15.22
2019-05-02T08:38:20.731Z,15.14
2019-05-02T08:43:22.044Z,15.36
2019-05-02T08:48:22.915Z,16.05
2019-05-02T08:53:23.779Z,16.09
2019-05-02T08:58:24.659Z,16.24
2019-05-02T09:03:25.557Z,16.43
2019-05-02T09:08:26.430Z,17.13
2019-05-02T09:13:29.450Z,16.86
2019-05-02T09:18:37.876Z,16.92
2019-05-02T09:23:36.858Z,17.66
2019-05-02T09:28:35.644Z,17.47
2019-05-02T09:33:36.987Z,17.55
2019-05-02T09:38:39.436Z,17.58
2019-05-02T09:43:40.310Z,17.46
2019-05-02T09:48:42.746Z,17.68
2019-05-02T09:53:44.731Z,18.05
2019-05-02T09:58:45.707Z,18.05
2019-05-02T10:03:46.805Z,18.37
2019-05-02T10:08:47.752Z,18.72
2019-05-02T10:13:48.658Z,18.29
2019-05-02T10:18:49.623Z,18.72
2019-05-02T10:23:51.821Z,18.62
2019-05-02T10:28:53.575Z,19.27
2019-05-02T10:33:54.535Z,19.01
2019-05-02T10:38:59.263Z,19.42
2019-05-02T10:43:59.605Z,19.90
2019-05-02T10:49:02.470Z,19.92
2019-05-02T10:54:05.151Z,19.91
2019-05-02T10:59:06.043Z,20.27
2019-05-02T11:04:08.808Z,20.09
2019-05-02T11:09:11.888Z,20.17
2019-05-02T11:14:14.763Z,20.55
2019-05-02T11:19:17.598Z,20.35
2019-05-02T11:24:18.523Z,20.11
2019-05-02T11:29:19.380Z,20.34
2019-05-02T11:34:22.078Z,20.58
2019-05-02T11:39:30.969Z,20.68
2019-05-02T11:44:25.956Z,20.63
2019-05-02T11:49:26.836Z,20.72
2019-05-02T11:54:27.932Z,20.71
2019-05-02T11:59:29.294Z,20.84
2019-05-02T12:04:32.444Z,21.04
2019-05-02T12:09:33.269Z,20.89
2019-05-02T12:14:36.388Z,20.91
2019-05-02T12:19:36.937Z,21.52
2019-05-02T12:24:40.794Z,21.72
2019-05-02T12:29:42.376Z,21.40
2019-05-02T12:34:43.481Z,21.51
2019-05-02T12:39:44.367Z,21.87
2019-05-02T12:44:45.240Z,21.81
2019-05-02T12:49:46.117Z,21.84
2019-05-02T12:54:46.987Z,21.68
2019-05-02T12:59:47.880Z,21.67
2019-05-02T13:04:48.960Z,22.08
2019-05-02T13:09:49.861Z,21.66
2019-05-02T13:14:52.862Z,22.09
2019-05-02T13:19:57.134Z,21.61
2019-05-02T13:24:58.791Z,21.46
2019-05-02T13:29:59.773Z,21.64
2019-05-02T13:35:02.761Z,21.72
2019-05-02T13:40:06.463Z,22.09
2019-05-02T13:45:12.854Z,21.92
2019-05-02T13:50:14.797Z,21.88
2019-05-02T13:55:17.875Z,21.87
2019-05-02T14:00:31.905Z,21.44
2019-05-02T14:05:33.031Z,21.60
2019-05-02T14:10:39.236Z,21.65
2019-05-02T14:15:39.635Z,21.51
2019-05-02T14:20:42.629Z,21.89
2019-05-02T14:25:45.388Z,21.92
2019-05-02T14:30:46.562Z,21.85
2019-05-02T14:35:47.431Z,21.62
2019-05-02T14:41:03.078Z,21.86
2019-05-02T14:46:04.462Z,21.77
2019-05-02T14:51:05.331Z,21.71
2019-05-02T14:56:12.499Z,21.59
2019-05-02T15:01:17.169Z,21.56
2019-05-02T15:06:16.581Z,21.73
2019-05-02T15:11:17.555Z,21.89
2019-05-02T15:16:20.063Z,22.08
2019-05-02T15:21:22.921Z,21.85
2019-05-02T15:26:26.214Z,21.81
2019-05-02T15:31:31.586Z,21.93
2019-05-02T15:36:32.398Z,21.59
2019-05-02T15:41:33.307Z,21.51
2019-05-02T15:46:34.353Z,21.75
2019-05-02T15:51:38.008Z,21.51
2019-05-02T15:56:54.014Z,21.38
2019-05-02T16:01:55.767Z,21.18
2019-05-02T16:07:00.501Z,20.99
2019-05-02T16:12:03.384Z,20.88
2019-05-02T16:17:04.604Z,21.04
2019-05-02T16:22:11.532Z,21.11
2019-05-02T16:27:16.433Z,21.33
2019-05-02T16:32:23.193Z,21.04
2019-05-02T16:37:24.323Z,20.90
2019-05-02T16:42:25.376Z,20.93
2019-05-02T16:47:26.253Z,20.44
2019-05-02T16:52:27.133Z,20.04
2019-05-02T16:57:28.008Z,19.82
2019-05-02T17:02:28.867Z,19.73
2019-05-02T17:07:48.416Z,19.49
2019-05-02T17:12:52.978Z,19.36
2019-05-02T17:17:54.217Z,19.08
2019-05-02T17:23:01.824Z,18.94
2019-05-02T17:28:02.444Z,18.84
2019-05-02T17:33:01.895Z,18.40
2019-05-02T17:38:03.316Z,18.43
2019-05-02T17:43:06.858Z,18.08
2019-05-02T17:48:15.275Z,18.04
2019-05-02T17:53:11.679Z,17.85
2019-05-02T17:58:16.053Z,17.42
2019-05-02T18:03:15.708Z,17.39
2019-05-02T18:08:16.740Z,17.25
2019-05-02T18:13:17.611Z,16.93
2019-05-02T18:18:18.487Z,16.63
2019-05-02T18:23:24.111Z,16.53
2019-05-02T18:28:26.127Z,16.32
2019-05-02T18:33:24.940Z,15.97
2019-05-02T18:38:25.826Z,16.03
2019-05-02T18:43:26.708Z,15.64
2019-05-02T18:48:27.581Z,15.70
2019-05-02T18:53:28.457Z,15.39
2019-05-02T18:58:29.437Z,15.22
2019-05-02T19:03:30.431Z,15.11
2019-05-02T19:08:45.191Z,15.12
2019-05-02T19:13:37.544Z,14.95
2019-05-02T19:18:39.988Z,15.03
2019-05-02T19:23:42.465Z,15.03
2019-05-02T19:28:57.527Z,14.98
2019-05-02T19:33:58.387Z,14.83
2019-05-02T19:39:07.821Z,14.83
2019-05-02T19:44:02.390Z,14.70
2019-05-02T19:49:06.842Z,14.62
2019-05-02T19:54:07.142Z,14.82
2019-05-02T19:59:08.139Z,14.74
2019-05-02T20:04:09.576Z,14.58
2019-05-02T20:09:12.034Z,14.38
2019-05-02T20:14:13.546Z,14.38
